Řízení letového provozu České republiky  
Aktualizace dat:  30.05.2020 01:13:18 UTC English version
   METEO Zobrazení stránky:  30.05.2020 01:14:36 UTC  
vysvětlivky
METAR EDDB 300050Z 04009KT CAVOK 10/04 Q1026 NOSIG=
METAR EDDC 300050Z 35004KT CAVOK 09/05 Q1024=
METAR EDDE 300050Z 33004KT CAVOK 11/05 Q1025=
METAR EDDF 300050Z 36009KT CAVOK 13/03 Q1023 NOSIG=
METAR EDDM 300050Z VRB02KT CAVOK 05/05 Q1022 NOSIG=
METAR EDDN 300050Z 07003KT CAVOK 10/03 Q1023=
METAR EDDP 300050Z 03007KT CAVOK 11/05 Q1025 NOSIG=
METAR EDDT 300050Z 03004KT 360V060 CAVOK 10/05 Q1026=
METAR EDQM NIL
METAR EPBY 300100Z 35006KT CAVOK 06/03 Q1023=
METAR EPGD 300100Z 36007KT CAVOK 07/06 Q1024=
METAR EPKK 300100Z 20003KT 160V280 9999 BKN068 10/03 Q1019=
METAR EPKT 300100Z 32003KT 290V350 CAVOK 06/02 Q1020=
METAR EPLL 300100Z 32007KT 290V360 CAVOK 08/04 Q1020=
METAR EPPO 300100Z 33005KT CAVOK 06/03 Q1024=
METAR EPRZ 300100Z 28007KT CAVOK 10/05 Q1016=
METAR EPWA 300100Z 33008KT CAVOK 10/05 Q1019 NOSIG=
METAR EPWR 300100Z 31005KT CAVOK 06/02 Q1023=
METAR LHBP 300100Z AUTO 33008KT 9999 BKN064/// OVC073/// 13/08 Q1018=
METAR LHSM 300045Z AUTO 00000KT 9000 NSC 10/07 Q1019=
METAR LKBC 300100Z AUTO 28002KT 9999 SCT066 OVC078 09/05 Q1022=
METAR LKCV 300100Z 31005KT CAVOK 12/06 Q1022 NOSIG RMK BLU BLU=
METAR LKKB 300100Z 32003KT CAVOK 12/05 Q1022 NOSIG RMK BLU=
METAR LKKU NIL
METAR LKKV 300100Z 31002KT CAVOK 10/03 Q1023 RMK REG QNH 1018=
METAR LKLN 300100Z AUTO VRB01KT 9999 OVC094 10/05 Q1023=
METAR LKMT 300100Z 19003KT CAVOK 05/03 Q1021 NOSIG RMK REG QNH 1018=
METAR LKNA 300100Z 33006KT CAVOK 09/03 Q1021 RMK BLU=
METAR LKPD 300100Z VRB02KT CAVOK 12/06 Q1022 RMK BLU=
METAR LKPJ 300100Z AUTO 35005KT 9999 FEW065 OVC082 11/03 Q1021=
METAR LKPR 300100Z 32004KT CAVOK 10/05 Q1022 NOSIG RMK REG QNH 1018=
METAR LKTB 300100Z 35007KT CAVOK 10/04 Q1021 NOSIG RMK REG QNH 1018=
METAR LKVO NIL
METAR LOWI 300050Z AUTO VRB02KT 9999 NCD 08/05 Q1021=
METAR LOWL 300050Z AUTO 36003KT 320V050 9999 FEW003 BKN080 09/09 Q1022=
METAR LOWS 300050Z AUTO 23002KT 9999 FEW070 06/06 Q1022=
METAR LOWW 300050Z 31007KT CAVOK 10/07 Q1021 NOSIG=
METAR LZIB 300100Z 32003KT CAVOK 11/04 Q1020=
METAR LZKZ 300100Z 36008KT CAVOK 12/02 Q1016=
METAR LZMC NIL
METAR LZPP 300100Z AUTO 32007KT 9999 NCD 05/04 Q1020=
METAR LZSL 300100Z 20001KT CAVOK 06/03 Q1018=
METAR LZTT 300100Z 27006KT 9999 FEW053 04/02 Q1018=
METAR LZZI 300100Z 14003KT CAVOK 05/04 Q1020=